Aviation Digital Data Service (ADDS)

Output produced by TAFs form (0155 UTC 22 June 2018)
found at http://www.aviationweather.gov/adds/tafs/
 
METAR text: RJOW 220100Z 19005KT 9999 FEW040 BKN/// 25/16 Q1010
Conditions at: RJOW (IWAMI , JP) observed 0100 UTC 22 June 2018
Temperature: 25.0°C (77°F)
Dewpoint: 16.0°C (61°F) [RH = 57%]
Pressure (altimeter): 29.82 inches Hg (1010.0 mb)
Winds: from the S (190 degrees) at 6 MPH (5 knots; 2.6 m/s)
Visibility: 6 or more miles (10+ km)
Ceiling: at least 12,000 feet AGL
Clouds: few clouds at 4000 feet AGL
Weather: no significant weather observed at this time